sensor_id;sensor_type;location;lat;lon;timestamp;P1;durP1;ratioP1;P2;durP2;ratioP2
29934;SDS011;19905;53.370;-6.314;2023-11-19T00:00:21;28.40;;;3.50;;
29934;SDS011;19905;53.370;-6.314;2023-11-19T00:02:50;29.50;;;3.95;;
29934;SDS011;19905;53.370;-6.314;2023-11-19T00:05:18;23.20;;;3.20;;
29934;SDS011;19905;53.370;-6.314;2023-11-19T00:07:47;23.42;;;3.45;;
29934;SDS011;19905;53.370;-6.314;2023-11-19T00:10:16;25.30;;;3.60;;
29934;SDS011;19905;53.370;-6.314;2023-11-19T00:12:48;31.58;;;3.85;;
29934;SDS011;19905;53.370;-6.314;2023-11-19T00:15:18;40.42;;;4.78;;
29934;SDS011;19905;53.370;-6.314;2023-11-19T00:17:47;31.27;;;4.00;;
29934;SDS011;19905;53.370;-6.314;2023-11-19T00:20:16;30.42;;;3.97;;
29934;SDS011;19905;53.370;-6.314;2023-11-19T00:22:45;28.10;;;3.90;;
29934;SDS011;19905;53.370;-6.314;2023-11-19T00:25:16;32.22;;;3.92;;
29934;SDS011;19905;53.370;-6.314;2023-11-19T00:27:45;33.80;;;4.32;;
29934;SDS011;19905;53.370;-6.314;2023-11-19T00:30:14;29.88;;;4.40;;
29934;SDS011;19905;53.370;-6.314;2023-11-19T00:32:44;25.48;;;3.67;;
29934;SDS011;19905;53.370;-6.314;2023-11-19T00:35:13;24.40;;;4.05;;
29934;SDS011;19905;53.370;-6.314;2023-11-19T00:37:42;20.88;;;3.55;;
29934;SDS011;19905;53.370;-6.314;2023-11-19T00:40:13;27.25;;;3.78;;
29934;SDS011;19905;53.370;-6.314;2023-11-19T00:42:43;24.30;;;3.60;;
29934;SDS011;19905;53.370;-6.314;2023-11-19T00:45:11;26.42;;;3.72;;
29934;SDS011;19905;53.370;-6.314;2023-11-19T00:47:40;35.42;;;4.28;;
29934;SDS011;19905;53.370;-6.314;2023-11-19T00:50:10;25.33;;;3.85;;
29934;SDS011;19905;53.370;-6.314;2023-11-19T00:52:40;32.72;;;4.25;;
29934;SDS011;19905;53.370;-6.314;2023-11-19T00:55:09;31.77;;;5.03;;
29934;SDS011;19905;53.370;-6.314;2023-11-19T00:57:39;32.88;;;3.90;;
29934;SDS011;19905;53.370;-6.314;2023-11-19T01:00:08;27.42;;;4.53;;
29934;SDS011;19905;53.370;-6.314;2023-11-19T01:02:46;33.78;;;4.28;;
29934;SDS011;19905;53.370;-6.314;2023-11-19T01:05:19;32.83;;;4.07;;
29934;SDS011;19905;53.370;-6.314;2023-11-19T01:07:49;32.97;;;4.53;;
29934;SDS011;19905;53.370;-6.314;2023-11-19T01:10:21;36.15;;;4.93;;
29934;SDS011;19905;53.370;-6.314;2023-11-19T01:12:50;25.60;;;3.72;;
29934;SDS011;19905;53.370;-6.314;2023-11-19T01:15:20;29.10;;;3.60;;
29934;SDS011;19905;53.370;-6.314;2023-11-19T01:17:48;25.13;;;3.72;;
29934;SDS011;19905;53.370;-6.314;2023-11-19T01:20:20;27.52;;;3.92;;
29934;SDS011;19905;53.370;-6.314;2023-11-19T01:22:49;27.50;;;3.45;;
29934;SDS011;19905;53.370;-6.314;2023-11-19T01:25:17;33.90;;;4.07;;
29934;SDS011;19905;53.370;-6.314;2023-11-19T01:27:46;25.10;;;3.20;;
29934;SDS011;19905;53.370;-6.314;2023-11-19T01:30:15;18.95;;;2.72;;
29934;SDS011;19905;53.370;-6.314;2023-11-19T01:32:44;22.45;;;3.33;;
29934;SDS011;19905;53.370;-6.314;2023-11-19T01:35:12;29.23;;;3.63;;
29934;SDS011;19905;53.370;-6.314;2023-11-19T01:37:43;27.52;;;3.20;;
29934;SDS011;19905;53.370;-6.314;2023-11-19T01:40:11;25.98;;;3.03;;
29934;SDS011;19905;53.370;-6.314;2023-11-19T01:42:40;23.08;;;3.15;;
29934;SDS011;19905;53.370;-6.314;2023-11-19T01:45:09;23.00;;;3.47;;
29934;SDS011;19905;53.370;-6.314;2023-11-19T01:47:37;21.42;;;2.67;;
29934;SDS011;19905;53.370;-6.314;2023-11-19T01:50:06;21.33;;;3.03;;
29934;SDS011;19905;53.370;-6.314;2023-11-19T01:52:35;21.20;;;3.33;;
29934;SDS011;19905;53.370;-6.314;2023-11-19T01:55:07;25.60;;;3.25;;
29934;SDS011;19905;53.370;-6.314;2023-11-19T01:57:36;32.00;;;4.20;;
29934;SDS011;19905;53.370;-6.314;2023-11-19T02:00:08;27.80;;;3.55;;
29934;SDS011;19905;53.370;-6.314;2023-11-19T02:02:39;19.55;;;2.80;;
29934;SDS011;19905;53.370;-6.314;2023-11-19T02:05:08;18.33;;;3.30;;
29934;SDS011;19905;53.370;-6.314;2023-11-19T02:07:37;27.88;;;3.33;;
29934;SDS011;19905;53.370;-6.314;2023-11-19T02:10:08;23.90;;;3.35;;
29934;SDS011;19905;53.370;-6.314;2023-11-19T02:12:40;24.73;;;3.17;;
29934;SDS011;19905;53.370;-6.314;2023-11-19T02:15:11;28.23;;;4.07;;
29934;SDS011;19905;53.370;-6.314;2023-11-19T02:17:39;25.27;;;3.65;;
29934;SDS011;19905;53.370;-6.314;2023-11-19T02:20:08;21.17;;;2.90;;
29934;SDS011;19905;53.370;-6.314;2023-11-19T02:22:39;33.15;;;3.95;;
29934;SDS011;19905;53.370;-6.314;2023-11-19T02:25:11;25.55;;;3.17;;
29934;SDS011;19905;53.370;-6.314;2023-11-19T02:27:50;15.98;;;2.47;;
29934;SDS011;19905;53.370;-6.314;2023-11-19T02:30:21;19.40;;;2.95;;
29934;SDS011;19905;53.370;-6.314;2023-11-19T02:32:53;18.17;;;2.83;;
29934;SDS011;19905;53.370;-6.314;2023-11-19T02:35:24;23.45;;;2.65;;
29934;SDS011;19905;53.370;-6.314;2023-11-19T02:37:53;18.80;;;2.80;;
29934;SDS011;19905;53.370;-6.314;2023-11-19T02:40:22;18.33;;;2.97;;
29934;SDS011;19905;53.370;-6.314;2023-11-19T02:42:53;18.25;;;2.70;;
29934;SDS011;19905;53.370;-6.314;2023-11-19T02:45:23;25.50;;;3.15;;
29934;SDS011;19905;53.370;-6.314;2023-11-19T02:47:52;19.10;;;2.60;;
29934;SDS011;19905;53.370;-6.314;2023-11-19T02:50:21;19.10;;;2.60;;
29934;SDS011;19905;53.370;-6.314;2023-11-19T02:52:53;23.80;;;3.15;;
29934;SDS011;19905;53.370;-6.314;2023-11-19T02:55:24;25.42;;;3.40;;
29934;SDS011;19905;53.370;-6.314;2023-11-19T02:57:56;23.83;;;3.05;;
29934;SDS011;19905;53.370;-6.314;2023-11-19T03:00:26;23.08;;;3.20;;
29934;SDS011;19905;53.370;-6.314;2023-11-19T03:03:02;16.83;;;2.63;;
29934;SDS011;19905;53.370;-6.314;2023-11-19T03:08:40;19.85;;;3.15;;
29934;SDS011;19905;53.370;-6.314;2023-11-19T03:11:08;22.02;;;3.58;;
29934;SDS011;19905;53.370;-6.314;2023-11-19T03:13:38;17.88;;;2.90;;
29934;SDS011;19905;53.370;-6.314;2023-11-19T03:16:08;17.52;;;2.63;;
29934;SDS011;19905;53.370;-6.314;2023-11-19T03:18:38;24.38;;;3.10;;
29934;SDS011;19905;53.370;-6.314;2023-11-19T03:21:07;18.60;;;2.72;;
29934;SDS011;19905;53.370;-6.314;2023-11-19T03:23:36;17.45;;;2.67;;
29934;SDS011;19905;53.370;-6.314;2023-11-19T03:26:07;17.70;;;2.70;;
29934;SDS011;19905;53.370;-6.314;2023-11-19T03:28:35;21.75;;;2.75;;
29934;SDS011;19905;53.370;-6.314;2023-11-19T03:31:06;19.85;;;2.47;;
29934;SDS011;19905;53.370;-6.314;2023-11-19T03:33:35;21.00;;;2.70;;
29934;SDS011;19905;53.370;-6.314;2023-11-19T03:36:04;27.67;;;3.78;;
29934;SDS011;19905;53.370;-6.314;2023-11-19T03:38:34;21.40;;;2.95;;
29934;SDS011;19905;53.370;-6.314;2023-11-19T03:41:09;17.23;;;2.45;;
29934;SDS011;19905;53.370;-6.314;2023-11-19T03:43:37;15.23;;;2.53;;
29934;SDS011;19905;53.370;-6.314;2023-11-19T03:46:16;19.98;;;2.70;;
29934;SDS011;19905;53.370;-6.314;2023-11-19T03:48:45;20.88;;;2.83;;
29934;SDS011;19905;53.370;-6.314;2023-11-19T03:51:14;15.20;;;2.58;;
29934;SDS011;19905;53.370;-6.314;2023-11-19T03:53:42;15.55;;;2.53;;
29934;SDS011;19905;53.370;-6.314;2023-11-19T03:56:11;18.65;;;2.97;;
29934;SDS011;19905;53.370;-6.314;2023-11-19T03:58:39;18.10;;;2.05;;
29934;SDS011;19905;53.370;-6.314;2023-11-19T04:01:10;13.82;;;2.63;;
29934;SDS011;19905;53.370;-6.314;2023-11-19T04:03:41;10.00;;;1.80;;
29934;SDS011;19905;53.370;-6.314;2023-11-19T04:06:12;22.10;;;2.90;;
29934;SDS011;19905;53.370;-6.314;2023-11-19T04:08:40;12.63;;;2.00;;
29934;SDS011;19905;53.370;-6.314;2023-11-19T04:11:08;10.27;;;1.75;;
29934;SDS011;19905;53.370;-6.314;2023-11-19T04:13:36;17.15;;;2.53;;
29934;SDS011;19905;53.370;-6.314;2023-11-19T04:16:06;18.55;;;2.55;;
29934;SDS011;19905;53.370;-6.314;2023-11-19T04:18:35;17.20;;;1.75;;
29934;SDS011;19905;53.370;-6.314;2023-11-19T04:21:06;17.45;;;2.10;;
29934;SDS011;19905;53.370;-6.314;2023-11-19T04:23:35;12.48;;;2.38;;
29934;SDS011;19905;53.370;-6.314;2023-11-19T04:26:03;17.35;;;2.35;;
29934;SDS011;19905;53.370;-6.314;2023-11-19T04:28:36;13.93;;;1.88;;
29934;SDS011;19905;53.370;-6.314;2023-11-19T04:31:05;16.88;;;2.70;;
29934;SDS011;19905;53.370;-6.314;2023-11-19T04:33:36;14.43;;;2.80;;
29934;SDS011;19905;53.370;-6.314;2023-11-19T04:36:04;16.40;;;2.38;;
29934;SDS011;19905;53.370;-6.314;2023-11-19T04:38:35;23.02;;;2.70;;
29934;SDS011;19905;53.370;-6.314;2023-11-19T04:41:05;15.38;;;2.67;;
29934;SDS011;19905;53.370;-6.314;2023-11-19T04:43:34;17.52;;;2.45;;
29934;SDS011;19905;53.370;-6.314;2023-11-19T04:46:03;13.85;;;2.10;;
29934;SDS011;19905;53.370;-6.314;2023-11-19T04:48:31;13.48;;;1.98;;
29934;SDS011;19905;53.370;-6.314;2023-11-19T04:51:04;19.83;;;2.67;;
29934;SDS011;19905;53.370;-6.314;2023-11-19T04:53:33;18.30;;;2.30;;
29934;SDS011;19905;53.370;-6.314;2023-11-19T04:56:08;14.63;;;2.28;;
29934;SDS011;19905;53.370;-6.314;2023-11-19T04:58:36;11.77;;;1.60;;
29934;SDS011;19905;53.370;-6.314;2023-11-19T05:01:05;19.25;;;2.60;;
29934;SDS011;19905;53.370;-6.314;2023-11-19T05:03:33;16.60;;;2.10;;
29934;SDS011;19905;53.370;-6.314;2023-11-19T05:06:03;18.45;;;2.05;;
29934;SDS011;19905;53.370;-6.314;2023-11-19T05:08:31;16.52;;;2.47;;
29934;SDS011;19905;53.370;-6.314;2023-11-19T05:11:00;15.20;;;2.25;;
29934;SDS011;19905;53.370;-6.314;2023-11-19T05:13:30;22.20;;;2.55;;
29934;SDS011;19905;53.370;-6.314;2023-11-19T05:15:58;13.05;;;1.77;;
29934;SDS011;19905;53.370;-6.314;2023-11-19T05:18:27;13.60;;;2.33;;
29934;SDS011;19905;53.370;-6.314;2023-11-19T05:20:56;9.48;;;1.52;;
29934;SDS011;19905;53.370;-6.314;2023-11-19T05:23:24;14.23;;;2.00;;
29934;SDS011;19905;53.370;-6.314;2023-11-19T05:25:53;12.07;;;2.40;;
29934;SDS011;19905;53.370;-6.314;2023-11-19T05:28:22;11.05;;;1.63;;
29934;SDS011;19905;53.370;-6.314;2023-11-19T05:30:53;11.40;;;2.20;;
29934;SDS011;19905;53.370;-6.314;2023-11-19T05:33:21;12.27;;;1.88;;
29934;SDS011;19905;53.370;-6.314;2023-11-19T05:38:44;13.07;;;1.48;;
29934;SDS011;19905;53.370;-6.314;2023-11-19T05:41:13;15.57;;;2.08;;
29934;SDS011;19905;53.370;-6.314;2023-11-19T05:43:42;13.32;;;2.08;;
29934;SDS011;19905;53.370;-6.314;2023-11-19T05:46:12;11.00;;;1.75;;
29934;SDS011;19905;53.370;-6.314;2023-11-19T05:48:43;12.38;;;2.22;;
29934;SDS011;19905;53.370;-6.314;2023-11-19T05:51:14;15.68;;;2.10;;
29934;SDS011;19905;53.370;-6.314;2023-11-19T05:53:43;9.75;;;1.75;;
29934;SDS011;19905;53.370;-6.314;2023-11-19T05:56:12;8.38;;;1.67;;
29934;SDS011;19905;53.370;-6.314;2023-11-19T05:58:42;10.32;;;1.55;;
29934;SDS011;19905;53.370;-6.314;2023-11-19T06:01:13;8.77;;;1.40;;
29934;SDS011;19905;53.370;-6.314;2023-11-19T06:03:41;9.65;;;1.70;;
29934;SDS011;19905;53.370;-6.314;2023-11-19T06:06:10;10.90;;;1.80;;
29934;SDS011;19905;53.370;-6.314;2023-11-19T06:08:38;10.10;;;1.58;;
29934;SDS011;19905;53.370;-6.314;2023-11-19T06:11:07;6.32;;;1.02;;
29934;SDS011;19905;53.370;-6.314;2023-11-19T06:13:35;8.75;;;1.60;;
29934;SDS011;19905;53.370;-6.314;2023-11-19T06:16:04;11.20;;;1.52;;
29934;SDS011;19905;53.370;-6.314;2023-11-19T06:18:35;10.05;;;1.40;;
29934;SDS011;19905;53.370;-6.314;2023-11-19T06:21:04;10.48;;;1.65;;
29934;SDS011;19905;53.370;-6.314;2023-11-19T06:23:32;9.38;;;1.52;;
29934;SDS011;19905;53.370;-6.314;2023-11-19T06:26:01;9.80;;;1.40;;
29934;SDS011;19905;53.370;-6.314;2023-11-19T06:28:29;7.28;;;1.00;;
29934;SDS011;19905;53.370;-6.314;2023-11-19T06:30:57;7.40;;;1.10;;
29934;SDS011;19905;53.370;-6.314;2023-11-19T06:33:26;7.30;;;1.17;;
29934;SDS011;19905;53.370;-6.314;2023-11-19T06:35:56;8.13;;;1.35;;
29934;SDS011;19905;53.370;-6.314;2023-11-19T06:38:24;6.47;;;0.85;;
29934;SDS011;19905;53.370;-6.314;2023-11-19T06:40:53;5.65;;;1.00;;
29934;SDS011;19905;53.370;-6.314;2023-11-19T06:43:21;5.97;;;0.73;;
29934;SDS011;19905;53.370;-6.314;2023-11-19T06:45:49;13.57;;;1.25;;
29934;SDS011;19905;53.370;-6.314;2023-11-19T06:48:18;6.80;;;1.23;;
29934;SDS011;19905;53.370;-6.314;2023-11-19T06:50:46;7.80;;;1.17;;
29934;SDS011;19905;53.370;-6.314;2023-11-19T06:53:16;11.23;;;1.40;;
29934;SDS011;19905;53.370;-6.314;2023-11-19T06:55:44;12.23;;;1.52;;
29934;SDS011;19905;53.370;-6.314;2023-11-19T06:58:13;12.25;;;1.77;;
29934;SDS011;19905;53.370;-6.314;2023-11-19T07:00:41;8.48;;;1.80;;
29934;SDS011;19905;53.370;-6.314;2023-11-19T07:03:10;13.10;;;1.88;;
29934;SDS011;19905;53.370;-6.314;2023-11-19T07:05:39;12.18;;;1.70;;
29934;SDS011;19905;53.370;-6.314;2023-11-19T07:08:07;9.95;;;1.10;;
29934;SDS011;19905;53.370;-6.314;2023-11-19T07:10:37;10.00;;;1.38;;
29934;SDS011;19905;53.370;-6.314;2023-11-19T07:13:05;12.00;;;1.77;;
29934;SDS011;19905;53.370;-6.314;2023-11-19T07:15:34;7.40;;;1.38;;
29934;SDS011;19905;53.370;-6.314;2023-11-19T07:18:02;8.60;;;1.55;;
29934;SDS011;19905;53.370;-6.314;2023-11-19T07:20:30;9.38;;;1.40;;
29934;SDS011;19905;53.370;-6.314;2023-11-19T07:23:00;9.52;;;1.48;;
29934;SDS011;19905;53.370;-6.314;2023-11-19T07:25:29;6.75;;;1.20;;
29934;SDS011;19905;53.370;-6.314;2023-11-19T07:27:59;8.85;;;1.30;;
29934;SDS011;19905;53.370;-6.314;2023-11-19T07:30:31;7.22;;;1.50;;
29934;SDS011;19905;53.370;-6.314;2023-11-19T07:33:00;9.80;;;1.80;;
29934;SDS011;19905;53.370;-6.314;2023-11-19T07:35:31;6.28;;;1.10;;
29934;SDS011;19905;53.370;-6.314;2023-11-19T07:38:00;6.30;;;1.00;;
29934;SDS011;19905;53.370;-6.314;2023-11-19T07:40:29;5.90;;;1.20;;
29934;SDS011;19905;53.370;-6.314;2023-11-19T07:42:59;5.15;;;0.90;;
29934;SDS011;19905;53.370;-6.314;2023-11-19T07:45:27;4.15;;;0.90;;
29934;SDS011;19905;53.370;-6.314;2023-11-19T07:47:55;4.30;;;0.93;;
29934;SDS011;19905;53.370;-6.314;2023-11-19T07:50:24;7.57;;;0.93;;
29934;SDS011;19905;53.370;-6.314;2023-11-19T07:52:52;4.50;;;0.80;;
29934;SDS011;19905;53.370;-6.314;2023-11-19T07:55:21;8.57;;;1.23;;
29934;SDS011;19905;53.370;-6.314;2023-11-19T07:57:49;4.28;;;0.80;;
29934;SDS011;19905;53.370;-6.314;2023-11-19T08:00:19;5.90;;;1.05;;
29934;SDS011;19905;53.370;-6.314;2023-11-19T08:02:47;5.05;;;0.90;;
29934;SDS011;19905;53.370;-6.314;2023-11-19T08:05:16;8.43;;;1.20;;
29934;SDS011;19905;53.370;-6.314;2023-11-19T08:07:46;6.22;;;0.90;;
29934;SDS011;19905;53.370;-6.314;2023-11-19T08:10:16;5.22;;;0.85;;
29934;SDS011;19905;53.370;-6.314;2023-11-19T08:12:44;4.63;;;0.80;;
29934;SDS011;19905;53.370;-6.314;2023-11-19T08:15:12;5.20;;;0.70;;
29934;SDS011;19905;53.370;-6.314;2023-11-19T08:17:42;4.25;;;0.52;;
29934;SDS011;19905;53.370;-6.314;2023-11-19T08:20:10;3.15;;;0.60;;
29934;SDS011;19905;53.370;-6.314;2023-11-19T08:22:39;1.02;;;0.40;;
29934;SDS011;19905;53.370;-6.314;2023-11-19T08:25:08;3.35;;;0.80;;
29934;SDS011;19905;53.370;-6.314;2023-11-19T08:27:36;4.75;;;0.52;;
29934;SDS011;19905;53.370;-6.314;2023-11-19T08:30:05;3.95;;;0.70;;
29934;SDS011;19905;53.370;-6.314;2023-11-19T08:32:34;3.83;;;0.55;;
29934;SDS011;19905;53.370;-6.314;2023-11-19T08:35:04;2.58;;;0.70;;
29934;SDS011;19905;53.370;-6.314;2023-11-19T08:37:33;2.80;;;0.63;;
29934;SDS011;19905;53.370;-6.314;2023-11-19T08:40:03;2.13;;;0.50;;
29934;SDS011;19905;53.370;-6.314;2023-11-19T08:42:34;4.40;;;0.70;;
29934;SDS011;19905;53.370;-6.314;2023-11-19T08:45:03;2.53;;;0.68;;
29934;SDS011;19905;53.370;-6.314;2023-11-19T08:47:32;5.35;;;0.70;;
29934;SDS011;19905;53.370;-6.314;2023-11-19T08:50:00;1.05;;;0.30;;
29934;SDS011;19905;53.370;-6.314;2023-11-19T08:52:31;2.70;;;0.50;;
29934;SDS011;19905;53.370;-6.314;2023-11-19T08:55:01;2.72;;;0.50;;
29934;SDS011;19905;53.370;-6.314;2023-11-19T08:57:29;2.53;;;0.40;;
29934;SDS011;19905;53.370;-6.314;2023-11-19T08:59:58;2.75;;;0.50;;
29934;SDS011;19905;53.370;-6.314;2023-11-19T09:02:27;2.55;;;0.43;;
29934;SDS011;19905;53.370;-6.314;2023-11-19T09:04:55;1.65;;;0.40;;
29934;SDS011;19905;53.370;-6.314;2023-11-19T09:07:23;1.77;;;0.45;;
29934;SDS011;19905;53.370;-6.314;2023-11-19T09:09:53;1.40;;;0.40;;
29934;SDS011;19905;53.370;-6.314;2023-11-19T09:12:22;1.67;;;0.30;;
29934;SDS011;19905;53.370;-6.314;2023-11-19T09:14:50;1.83;;;0.40;;
29934;SDS011;19905;53.370;-6.314;2023-11-19T09:17:19;1.48;;;0.30;;
29934;SDS011;19905;53.370;-6.314;2023-11-19T09:19:47;0.57;;;0.30;;
29934;SDS011;19905;53.370;-6.314;2023-11-19T09:22:15;1.05;;;0.63;;
29934;SDS011;19905;53.370;-6.314;2023-11-19T09:24:43;2.40;;;0.40;;
29934;SDS011;19905;53.370;-6.314;2023-11-19T09:27:13;3.03;;;0.50;;
29934;SDS011;19905;53.370;-6.314;2023-11-19T09:29:41;2.47;;;0.50;;
29934;SDS011;19905;53.370;-6.314;2023-11-19T09:32:12;1.67;;;0.40;;
29934;SDS011;19905;53.370;-6.314;2023-11-19T09:34:41;1.30;;;0.45;;
29934;SDS011;19905;53.370;-6.314;2023-11-19T09:37:09;1.02;;;0.40;;
29934;SDS011;19905;53.370;-6.314;2023-11-19T09:39:40;2.08;;;0.50;;
29934;SDS011;19905;53.370;-6.314;2023-11-19T09:42:10;2.20;;;0.40;;
29934;SDS011;19905;53.370;-6.314;2023-11-19T09:44:40;2.13;;;0.50;;
29934;SDS011;19905;53.370;-6.314;2023-11-19T09:47:10;0.28;;;0.20;;
29934;SDS011;19905;53.370;-6.314;2023-11-19T09:49:39;2.38;;;0.47;;
29934;SDS011;19905;53.370;-6.314;2023-11-19T09:52:08;0.80;;;0.20;;
29934;SDS011;19905;53.370;-6.314;2023-11-19T09:54:37;2.17;;;0.43;;
29934;SDS011;19905;53.370;-6.314;2023-11-19T09:57:05;1.77;;;0.40;;
29934;SDS011;19905;53.370;-6.314;2023-11-19T09:59:36;0.70;;;0.40;;
29934;SDS011;19905;53.370;-6.314;2023-11-19T10:02:06;2.22;;;0.50;;
29934;SDS011;19905;53.370;-6.314;2023-11-19T10:04:37;1.15;;;0.55;;
29934;SDS011;19905;53.370;-6.314;2023-11-19T10:07:06;5.03;;;0.70;;
29934;SDS011;19905;53.370;-6.314;2023-11-19T10:09:36;3.83;;;0.70;;
29934;SDS011;19905;53.370;-6.314;2023-11-19T10:12:04;5.68;;;0.70;;
29934;SDS011;19905;53.370;-6.314;2023-11-19T10:14:33;3.88;;;0.45;;
29934;SDS011;19905;53.370;-6.314;2023-11-19T10:17:05;3.03;;;0.80;;
29934;SDS011;19905;53.370;-6.314;2023-11-19T10:19:35;4.95;;;0.90;;
29934;SDS011;19905;53.370;-6.314;2023-11-19T10:22:04;8.88;;;2.60;;
29934;SDS011;19905;53.370;-6.314;2023-11-19T10:24:32;6.35;;;2.05;;
29934;SDS011;19905;53.370;-6.314;2023-11-19T10:27:06;10.13;;;2.55;;
29934;SDS011;19905;53.370;-6.314;2023-11-19T10:29:36;7.55;;;1.73;;
29934;SDS011;19905;53.370;-6.314;2023-11-19T10:32:06;6.70;;;2.08;;
29934;SDS011;19905;53.370;-6.314;2023-11-19T10:35:04;5.57;;;1.73;;
29934;SDS011;19905;53.370;-6.314;2023-11-19T10:37:34;4.00;;;1.00;;
29934;SDS011;19905;53.370;-6.314;2023-11-19T10:40:05;6.70;;;1.00;;
29934;SDS011;19905;53.370;-6.314;2023-11-19T10:42:37;4.78;;;1.23;;
29934;SDS011;19905;53.370;-6.314;2023-11-19T10:45:17;6.38;;;1.05;;
29934;SDS011;19905;53.370;-6.314;2023-11-19T10:48:04;7.88;;;1.20;;
29934;SDS011;19905;53.370;-6.314;2023-11-19T10:50:35;5.75;;;1.30;;
29934;SDS011;19905;53.370;-6.314;2023-11-19T10:53:04;6.55;;;0.80;;
29934;SDS011;19905;53.370;-6.314;2023-11-19T10:55:37;2.75;;;0.70;;
29934;SDS011;19905;53.370;-6.314;2023-11-19T10:58:08;3.88;;;0.75;;
29934;SDS011;19905;53.370;-6.314;2023-11-19T11:00:43;2.20;;;0.73;;
29934;SDS011;19905;53.370;-6.314;2023-11-19T11:03:20;2.05;;;0.73;;
29934;SDS011;19905;53.370;-6.314;2023-11-19T11:08:22;2.47;;;0.70;;
29934;SDS011;19905;53.370;-6.314;2023-11-19T11:10:57;3.60;;;0.98;;
29934;SDS011;19905;53.370;-6.314;2023-11-19T11:13:26;8.18;;;0.90;;
29934;SDS011;19905;53.370;-6.314;2023-11-19T11:15:56;2.97;;;0.80;;
29934;SDS011;19905;53.370;-6.314;2023-11-19T11:18:35;1.05;;;0.60;;
29934;SDS011;19905;53.370;-6.314;2023-11-19T11:21:05;3.60;;;0.60;;
29934;SDS011;19905;53.370;-6.314;2023-11-19T11:23:39;2.90;;;0.88;;
29934;SDS011;19905;53.370;-6.314;2023-11-19T11:26:20;2.55;;;0.65;;
29934;SDS011;19905;53.370;-6.314;2023-11-19T11:28:52;3.83;;;0.60;;
29934;SDS011;19905;53.370;-6.314;2023-11-19T11:31:29;1.15;;;0.50;;
29934;SDS011;19905;53.370;-6.314;2023-11-19T11:36:48;3.92;;;0.80;;
29934;SDS011;19905;53.370;-6.314;2023-11-19T11:39:18;2.42;;;0.60;;
29934;SDS011;19905;53.370;-6.314;2023-11-19T11:47:01;3.13;;;0.88;;
29934;SDS011;19905;53.370;-6.314;2023-11-19T11:49:29;2.88;;;0.50;;
29934;SDS011;19905;53.370;-6.314;2023-11-19T11:52:01;3.53;;;1.02;;
29934;SDS011;19905;53.370;-6.314;2023-11-19T11:54:35;3.10;;;0.60;;
29934;SDS011;19905;53.370;-6.314;2023-11-19T11:57:07;3.08;;;0.60;;
29934;SDS011;19905;53.370;-6.314;2023-11-19T11:59:43;1.10;;;0.50;;
29934;SDS011;19905;53.370;-6.314;2023-11-19T12:02:13;2.50;;;0.50;;
29934;SDS011;19905;53.370;-6.314;2023-11-19T12:04:43;1.60;;;0.60;;
29934;SDS011;19905;53.370;-6.314;2023-11-19T12:07:13;4.30;;;0.75;;
29934;SDS011;19905;53.370;-6.314;2023-11-19T12:09:42;1.95;;;0.50;;
29934;SDS011;19905;53.370;-6.314;2023-11-19T12:12:17;7.20;;;0.70;;
29934;SDS011;19905;53.370;-6.314;2023-11-19T12:17:40;2.33;;;0.65;;
29934;SDS011;19905;53.370;-6.314;2023-11-19T12:20:11;5.95;;;0.57;;
29934;SDS011;19905;53.370;-6.314;2023-11-19T12:22:41;3.85;;;0.60;;
29934;SDS011;19905;53.370;-6.314;2023-11-19T12:25:10;5.50;;;0.60;;
29934;SDS011;19905;53.370;-6.314;2023-11-19T12:27:39;5.03;;;0.70;;
29934;SDS011;19905;53.370;-6.314;2023-11-19T12:30:08;5.20;;;0.80;;
29934;SDS011;19905;53.370;-6.314;2023-11-19T12:32:39;4.65;;;0.70;;
29934;SDS011;19905;53.370;-6.314;2023-11-19T12:35:08;3.95;;;0.65;;
29934;SDS011;19905;53.370;-6.314;2023-11-19T12:37:43;4.68;;;1.73;;
29934;SDS011;19905;53.370;-6.314;2023-11-19T12:40:15;3.63;;;1.02;;
29934;SDS011;19905;53.370;-6.314;2023-11-19T12:42:44;3.33;;;1.15;;
29934;SDS011;19905;53.370;-6.314;2023-11-19T12:45:13;7.65;;;0.80;;
29934;SDS011;19905;53.370;-6.314;2023-11-19T12:47:43;4.57;;;1.48;;
29934;SDS011;19905;53.370;-6.314;2023-11-19T12:50:14;5.97;;;1.60;;
29934;SDS011;19905;53.370;-6.314;2023-11-19T12:52:54;4.72;;;0.95;;
29934;SDS011;19905;53.370;-6.314;2023-11-19T12:55:26;5.32;;;1.00;;
29934;SDS011;19905;53.370;-6.314;2023-11-19T12:57:57;2.80;;;0.88;;
29934;SDS011;19905;53.370;-6.314;2023-11-19T13:00:26;4.78;;;1.20;;
29934;SDS011;19905;53.370;-6.314;2023-11-19T13:02:55;4.82;;;0.90;;
29934;SDS011;19905;53.370;-6.314;2023-11-19T13:05:25;3.03;;;0.80;;
29934;SDS011;19905;53.370;-6.314;2023-11-19T13:08:02;3.78;;;0.95;;
29934;SDS011;19905;53.370;-6.314;2023-11-19T13:10:33;5.75;;;1.15;;
29934;SDS011;19905;53.370;-6.314;2023-11-19T13:13:02;5.88;;;1.42;;
29934;SDS011;19905;53.370;-6.314;2023-11-19T13:15:31;8.82;;;2.33;;
29934;SDS011;19905;53.370;-6.314;2023-11-19T13:18:01;12.20;;;2.45;;
29934;SDS011;19905;53.370;-6.314;2023-11-19T13:20:30;18.30;;;2.30;;
29934;SDS011;19905;53.370;-6.314;2023-11-19T13:23:00;17.95;;;3.22;;
29934;SDS011;19905;53.370;-6.314;2023-11-19T13:25:30;17.23;;;4.43;;
29934;SDS011;19905;53.370;-6.314;2023-11-19T13:27:59;24.70;;;3.50;;
29934;SDS011;19905;53.370;-6.314;2023-11-19T13:30:27;26.13;;;3.20;;
29934;SDS011;19905;53.370;-6.314;2023-11-19T13:32:56;19.77;;;2.83;;
29934;SDS011;19905;53.370;-6.314;2023-11-19T13:35:24;23.92;;;3.05;;
29934;SDS011;19905;53.370;-6.314;2023-11-19T13:37:54;32.00;;;3.28;;
29934;SDS011;19905;53.370;-6.314;2023-11-19T13:40:22;28.38;;;3.05;;
29934;SDS011;19905;53.370;-6.314;2023-11-19T13:42:53;19.25;;;2.63;;
29934;SDS011;19905;53.370;-6.314;2023-11-19T13:45:22;23.10;;;3.33;;
29934;SDS011;19905;53.370;-6.314;2023-11-19T13:47:51;26.50;;;3.00;;
29934;SDS011;19905;53.370;-6.314;2023-11-19T13:50:19;28.13;;;3.40;;
29934;SDS011;19905;53.370;-6.314;2023-11-19T13:52:49;29.05;;;3.78;;
29934;SDS011;19905;53.370;-6.314;2023-11-19T13:55:18;35.50;;;3.75;;
29934;SDS011;19905;53.370;-6.314;2023-11-19T13:57:46;24.33;;;2.83;;
29934;SDS011;19905;53.370;-6.314;2023-11-19T14:00:17;30.70;;;4.05;;
29934;SDS011;19905;53.370;-6.314;2023-11-19T14:02:46;27.60;;;3.85;;
29934;SDS011;19905;53.370;-6.314;2023-11-19T14:05:15;27.27;;;3.08;;
29934;SDS011;19905;53.370;-6.314;2023-11-19T14:08:03;20.85;;;2.70;;
29934;SDS011;19905;53.370;-6.314;2023-11-19T14:10:51;21.73;;;3.33;;
29934;SDS011;19905;53.370;-6.314;2023-11-19T14:13:22;16.23;;;3.42;;
29934;SDS011;19905;53.370;-6.314;2023-11-19T14:15:53;19.90;;;3.13;;
29934;SDS011;19905;53.370;-6.314;2023-11-19T14:18:21;14.05;;;2.42;;
29934;SDS011;19905;53.370;-6.314;2023-11-19T14:20:49;13.10;;;2.25;;
29934;SDS011;19905;53.370;-6.314;2023-11-19T14:23:18;19.30;;;2.30;;
29934;SDS011;19905;53.370;-6.314;2023-11-19T14:25:46;16.92;;;3.05;;
29934;SDS011;19905;53.370;-6.314;2023-11-19T14:28:16;20.75;;;2.97;;
29934;SDS011;19905;53.370;-6.314;2023-11-19T14:30:44;17.92;;;2.70;;
29934;SDS011;19905;53.370;-6.314;2023-11-19T14:33:16;14.73;;;2.80;;
29934;SDS011;19905;53.370;-6.314;2023-11-19T14:35:44;21.08;;;2.63;;
29934;SDS011;19905;53.370;-6.314;2023-11-19T14:38:13;20.02;;;2.85;;
29934;SDS011;19905;53.370;-6.314;2023-11-19T14:40:41;20.38;;;3.22;;
29934;SDS011;19905;53.370;-6.314;2023-11-19T14:43:10;16.70;;;2.58;;
29934;SDS011;19905;53.370;-6.314;2023-11-19T14:45:38;14.32;;;2.60;;
29934;SDS011;19905;53.370;-6.314;2023-11-19T14:48:16;18.40;;;2.03;;
29934;SDS011;19905;53.370;-6.314;2023-11-19T14:50:45;11.48;;;1.92;;
29934;SDS011;19905;53.370;-6.314;2023-11-19T14:53:13;14.77;;;2.47;;
29934;SDS011;19905;53.370;-6.314;2023-11-19T14:55:42;18.35;;;2.80;;
29934;SDS011;19905;53.370;-6.314;2023-11-19T14:58:11;19.73;;;3.30;;
29934;SDS011;19905;53.370;-6.314;2023-11-19T15:00:43;14.15;;;2.85;;
29934;SDS011;19905;53.370;-6.314;2023-11-19T15:03:12;16.58;;;2.47;;